Hozan Maru — JJ4010 — position and weather

sailwx.info

Track history (hours):
 
Tides and Currents Weather Stations Pressure Air Temp Water Temp Dewpoint Dewpoint Depression Visibility Wind Speed Wind Dir Waves Ship Positions

Hozan Maru

Last reported at 2014-Aug-21 06:24 UTC. Time now 2014-Aug-22 15:46 UTC.
Position N 34°40' E 135°27'.

Length 38 m; draft 3.6 m.

Type: Tug. MMSI: 431401501.

Date/timePositionNaut miles runAvg speedWind from/ knotsBaromVisibWave heightAir tempDewpointWater temp
2014-Aug-21 06:24N 34°40' E 135°27'0 0.0
2014-Aug-21 05:26N 34°40' E 135°27'0 0.0
2014-Aug-21 01:29N 34°40' E 135°27'5 5.3
2014-Aug-21 00:33N 34°42' E 135°21'3 3.1
2014-Aug-20 23:33N 34°39' E 135°22'4 3.8
2014-Aug-20 22:33N 34°38' E 135°27'2 2.0
2014-Aug-20 21:33N 34°40' E 135°27'0 0.0
2014-Aug-20 09:05N 34°40' E 135°27'610.6
2014-Aug-20 08:33N 34°38' E 135°21'1312.6
2014-Aug-20 07:33N 34°37' E 135°05'10 9.9
2014-Aug-20 06:30N 34°38' E 134°53'5 0.6
2014-Aug-19 23:26N 34°40' E 134°48'2 0.2
2014-Aug-19 13:27N 34°41' E 134°50'1010.3
2014-Aug-19 12:27N 34°38' E 135°02'1111.8
2014-Aug-19 11:33N 34°38' E 135°15'8 8.3
2014-Aug-19 10:33N 34°38' E 135°25'1 0.7
2014-Aug-19 09:33N 34°38' E 135°25'0 0.0
2014-Aug-19 08:33N 34°38' E 135°25'1 0.7
2014-Aug-19 07:33N 34°39' E 135°26'0 0.5
2014-Aug-19 06:33N 34°39' E 135°26'0 0.0
2014-Aug-19 05:33N 34°39' E 135°26'6 5.6
2014-Aug-19 04:33N 34°33' E 135°24'0 0.3
2014-Aug-19 03:33N 34°33' E 135°25'7 0.4
2014-Aug-18 07:26N 34°40' E 135°27'8 9.1
2014-Aug-18 06:33N 34°33' E 135°24'2 1.9
2014-Aug-18 05:33N 34°33' E 135°26'0 0.0
2014-Aug-18 04:33N 34°33' E 135°26'3 2.9
2014-Aug-18 03:32N 34°33' E 135°22'4 4.2
2014-Aug-18 02:32N 34°38' E 135°23'3 0.1
2014-Aug-17 06:14N 34°39' E 135°25'1 0.9
2014-Aug-17 05:33N 34°39' E 135°26'1 0.0
2014-Aug-16 07:33N 34°39' E 135°25'0 0.4
2014-Aug-16 06:33N 34°39' E 135°26'0 0.0
2014-Aug-16 05:33N 34°39' E 135°26'0 0.0
2014-Aug-16 04:33N 34°39' E 135°26'0 0.0
2014-Aug-16 03:33N 34°39' E 135°26'0 0.0
2014-Aug-16 02:33N 34°39' E 135°26'2 2.0
2014-Aug-16 01:33N 34°38' E 135°24'4 3.9
2014-Aug-16 00:33N 34°35' E 135°27'4 0.2
2014-Aug-15 07:08N 34°39' E 135°26'610.9
2014-Aug-15 06:33N 34°33' E 135°23'3 2.4
2014-Aug-15 05:25N 34°31' E 135°23'0 0.1
2014-Aug-15 04:33N 34°31' E 135°23'0 0.0
2014-Aug-15 03:33N 34°31' E 135°23'0 0.0
2014-Aug-15 02:33N 34°31' E 135°23'0 0.0
2014-Aug-15 01:33N 34°31' E 135°23'4 3.5
2014-Aug-15 00:32N 34°34' E 135°24'2 1.6
2014-Aug-14 23:33N 34°36' E 135°24'4 4.1
2014-Aug-14 22:31N 34°32' E 135°24'3 2.7
2014-Aug-14 21:32N 34°33' E 135°21'7 0.2
2014-Aug-13 04:33N 34°39' E 135°25'0 0.1
2014-Aug-13 03:33N 34°39' E 135°25'1 0.7
2014-Aug-13 02:33N 34°39' E 135°26'0 0.2
2014-Aug-13 01:33N 34°39' E 135°26'8 7.6
2014-Aug-13 00:32N 34°32' E 135°23'2 1.6
2014-Aug-12 23:33N 34°33' E 135°24'0 0.1
2014-Aug-12 22:33N 34°33' E 135°24'0 0.0
2014-Aug-12 20:33N 34°33' E 135°24'0 0.1
2014-Aug-12 19:33N 34°33' E 135°24'0 0.0
2014-Aug-12 18:33N 34°33' E 135°24'0 0.1
2014-Aug-12 17:33N 34°33' E 135°24'0 0.0
2014-Aug-12 16:33N 34°33' E 135°24'0 0.1
2014-Aug-12 15:33N 34°33' E 135°24'0 0.1
2014-Aug-12 14:33N 34°33' E 135°24'0 0.0
2014-Aug-12 13:33N 34°33' E 135°24'0 0.0
2014-Aug-12 12:33N 34°33' E 135°24'0 0.0
2014-Aug-12 11:33N 34°33' E 135°24'0 0.0
2014-Aug-12 10:32N 34°33' E 135°24'0 0.0
2014-Aug-12 09:29N 34°33' E 135°24'0 0.0
2014-Aug-12 08:30N 34°33' E 135°24'0 0.1
2014-Aug-12 07:32N 34°33' E 135°24'0 0.0
2014-Aug-12 06:28N 34°33' E 135°24'0 0.1
2014-Aug-12 05:32N 34°33' E 135°24'0 0.0
2014-Aug-12 04:28N 34°33' E 135°24'0 0.1
2014-Aug-12 03:29N 34°33' E 135°24'0 0.0
2014-Aug-12 02:33N 34°33' E 135°24'0 0.1
2014-Aug-12 01:33N 34°33' E 135°24'0 0.1
2014-Aug-12 00:33N 34°33' E 135°24'0 0.2
2014-Aug-11 23:33N 34°33' E 135°24'0 0.3
2014-Aug-11 22:33N 34°33' E 135°24'3 3.2
2014-Aug-11 21:33N 34°33' E 135°20'4 0.5
2014-Aug-11 12:33N 34°37' E 135°23'6 5.7
2014-Aug-11 11:32N 34°31' E 135°23'1 0.2
2014-Aug-11 08:04N 34°31' E 135°24'3 4.5
2014-Aug-11 07:18N 34°34' E 135°26'0 0.1
2014-Aug-11 06:30N 34°34' E 135°26'  
Track history (hours):
 
Tides and Currents Weather Stations Pressure Air Temp Water Temp Dewpoint Dewpoint Depression Visibility Wind Speed Wind Dir Waves Ship Positions

Hozan Maru

Last reported at 2014-Aug-21 06:24 UTC. Time now 2014-Aug-22 15:46 UTC.
Position N 34°40' E 135°27'.

Length 38 m; draft 3.6 m.

Type: Tug. MMSI: 431401501.

Date/timePositionNaut miles runAvg speedWind from/ knotsBaromVisibWave heightAir tempDewpointWater temp
2014-Aug-21 06:24N 34°40' E 135°27'0 0.0
2014-Aug-21 05:26N 34°40' E 135°27'0 0.0
2014-Aug-21 01:29N 34°40' E 135°27'5 5.3
2014-Aug-21 00:33N 34°42' E 135°21'3 3.1
2014-Aug-20 23:33N 34°39' E 135°22'4 3.8
2014-Aug-20 22:33N 34°38' E 135°27'2 2.0
2014-Aug-20 21:33N 34°40' E 135°27'0 0.0
2014-Aug-20 09:05N 34°40' E 135°27'610.6
2014-Aug-20 08:33N 34°38' E 135°21'1312.6
2014-Aug-20 07:33N 34°37' E 135°05'10 9.9
2014-Aug-20 06:30N 34°38' E 134°53'5 0.6
2014-Aug-19 23:26N 34°40' E 134°48'2 0.2
2014-Aug-19 13:27N 34°41' E 134°50'1010.3
2014-Aug-19 12:27N 34°38' E 135°02'1111.8
2014-Aug-19 11:33N 34°38' E 135°15'8 8.3
2014-Aug-19 10:33N 34°38' E 135°25'1 0.7
2014-Aug-19 09:33N 34°38' E 135°25'0 0.0
2014-Aug-19 08:33N 34°38' E 135°25'1 0.7
2014-Aug-19 07:33N 34°39' E 135°26'0 0.5
2014-Aug-19 06:33N 34°39' E 135°26'0 0.0
2014-Aug-19 05:33N 34°39' E 135°26'6 5.6
2014-Aug-19 04:33N 34°33' E 135°24'0 0.3
2014-Aug-19 03:33N 34°33' E 135°25'7 0.4
2014-Aug-18 07:26N 34°40' E 135°27'8 9.1
2014-Aug-18 06:33N 34°33' E 135°24'2 1.9
2014-Aug-18 05:33N 34°33' E 135°26'0 0.0
2014-Aug-18 04:33N 34°33' E 135°26'3 2.9
2014-Aug-18 03:32N 34°33' E 135°22'4 4.2
2014-Aug-18 02:32N 34°38' E 135°23'3 0.1
2014-Aug-17 06:14N 34°39' E 135°25'1 0.9
2014-Aug-17 05:33N 34°39' E 135°26'1 0.0
2014-Aug-16 07:33N 34°39' E 135°25'0 0.4
2014-Aug-16 06:33N 34°39' E 135°26'0 0.0
2014-Aug-16 05:33N 34°39' E 135°26'0 0.0
2014-Aug-16 04:33N 34°39' E 135°26'0 0.0
2014-Aug-16 03:33N 34°39' E 135°26'0 0.0
2014-Aug-16 02:33N 34°39' E 135°26'2 2.0
2014-Aug-16 01:33N 34°38' E 135°24'4 3.9
2014-Aug-16 00:33N 34°35' E 135°27'4 0.2
2014-Aug-15 07:08N 34°39' E 135°26'610.9
2014-Aug-15 06:33N 34°33' E 135°23'3 2.4
2014-Aug-15 05:25N 34°31' E 135°23'0 0.1
2014-Aug-15 04:33N 34°31' E 135°23'0 0.0
2014-Aug-15 03:33N 34°31' E 135°23'0 0.0
2014-Aug-15 02:33N 34°31' E 135°23'0 0.0
2014-Aug-15 01:33N 34°31' E 135°23'4 3.5
2014-Aug-15 00:32N 34°34' E 135°24'2 1.6
2014-Aug-14 23:33N 34°36' E 135°24'4 4.1
2014-Aug-14 22:31N 34°32' E 135°24'3 2.7
2014-Aug-14 21:32N 34°33' E 135°21'7 0.2
2014-Aug-13 04:33N 34°39' E 135°25'0 0.1
2014-Aug-13 03:33N 34°39' E 135°25'1 0.7
2014-Aug-13 02:33N 34°39' E 135°26'0 0.2
2014-Aug-13 01:33N 34°39' E 135°26'8 7.6
2014-Aug-13 00:32N 34°32' E 135°23'2 1.6
2014-Aug-12 23:33N 34°33' E 135°24'0 0.1
2014-Aug-12 22:33N 34°33' E 135°24'0 0.0
2014-Aug-12 20:33N 34°33' E 135°24'0 0.1
2014-Aug-12 19:33N 34°33' E 135°24'0 0.0
2014-Aug-12 18:33N 34°33' E 135°24'0 0.1
2014-Aug-12 17:33N 34°33' E 135°24'0 0.0
2014-Aug-12 16:33N 34°33' E 135°24'0 0.1
2014-Aug-12 15:33N 34°33' E 135°24'0 0.1
2014-Aug-12 14:33N 34°33' E 135°24'0 0.0
2014-Aug-12 13:33N 34°33' E 135°24'0 0.0
2014-Aug-12 12:33N 34°33' E 135°24'0 0.0
2014-Aug-12 11:33N 34°33' E 135°24'0 0.0
2014-Aug-12 10:32N 34°33' E 135°24'0 0.0
2014-Aug-12 09:29N 34°33' E 135°24'0 0.0
2014-Aug-12 08:30N 34°33' E 135°24'0 0.1
2014-Aug-12 07:32N 34°33' E 135°24'0 0.0
2014-Aug-12 06:28N 34°33' E 135°24'0 0.1
2014-Aug-12 05:32N 34°33' E 135°24'0 0.0
2014-Aug-12 04:28N 34°33' E 135°24'0 0.1
2014-Aug-12 03:29N 34°33' E 135°24'0 0.0
2014-Aug-12 02:33N 34°33' E 135°24'0 0.1
2014-Aug-12 01:33N 34°33' E 135°24'0 0.1
2014-Aug-12 00:33N 34°33' E 135°24'0 0.2
2014-Aug-11 23:33N 34°33' E 135°24'0 0.3
2014-Aug-11 22:33N 34°33' E 135°24'3 3.2
2014-Aug-11 21:33N 34°33' E 135°20'4 0.5
2014-Aug-11 12:33N 34°37' E 135°23'6 5.7
2014-Aug-11 11:32N 34°31' E 135°23'1 0.2
2014-Aug-11 08:04N 34°31' E 135°24'3 4.5
2014-Aug-11 07:18N 34°34' E 135°26'0 0.1
2014-Aug-11 06:30N 34°34' E 135°26'  

Dump ship's entire track history